createdAt,value
2019-03-28T00:02:08.949Z,40.17
2019-03-28T00:04:35.761Z,42.20
2019-03-28T00:07:02.556Z,38.45
2019-03-28T00:09:29.430Z,44.67
2019-03-28T00:11:56.231Z,42.60
2019-03-28T00:14:23.004Z,42.30
2019-03-28T00:16:50.168Z,44.35
2019-03-28T00:19:17.091Z,40.90
2019-03-28T00:21:43.962Z,42.98
2019-03-28T00:24:12.972Z,40.12
2019-03-28T00:26:40.214Z,43.15
2019-03-28T00:29:06.977Z,40.35
2019-03-28T00:31:33.947Z,41.00
2019-03-28T00:34:02.674Z,39.75
2019-03-28T00:36:29.490Z,42.78
2019-03-28T00:38:56.461Z,41.45
2019-03-28T00:41:23.552Z,40.65
2019-03-28T00:43:51.329Z,40.45
2019-03-28T00:46:18.149Z,40.00
2019-03-28T00:48:44.925Z,40.12
2019-03-28T00:51:11.912Z,39.55
2019-03-28T00:53:39.319Z,42.17
2019-03-28T00:56:06.377Z,41.55
2019-03-28T00:58:33.252Z,40.40
2019-03-28T01:01:00.064Z,41.13
2019-03-28T01:03:26.826Z,41.37
2019-03-28T01:05:53.589Z,43.25
2019-03-28T01:08:20.417Z,41.83
2019-03-28T01:10:47.396Z,42.73
2019-03-28T01:13:14.902Z,39.92
2019-03-28T01:15:41.718Z,42.08
2019-03-28T01:18:08.569Z,39.95
2019-03-28T01:20:35.943Z,39.75
2019-03-28T01:23:03.027Z,39.92
2019-03-28T01:25:29.793Z,39.78
2019-03-28T01:27:56.581Z,39.05
2019-03-28T01:30:23.507Z,38.10
2019-03-28T01:32:51.001Z,38.20
2019-03-28T01:35:17.826Z,37.53
2019-03-28T01:37:44.587Z,37.13
2019-03-28T01:40:11.509Z,37.53
2019-03-28T01:42:38.294Z,38.08
2019-03-28T01:45:05.387Z,36.63
2019-03-28T01:47:32.272Z,37.05
2019-03-28T01:49:59.045Z,35.63
2019-03-28T01:52:25.864Z,35.70
2019-03-28T01:54:52.797Z,36.60
2019-03-28T01:57:19.803Z,37.35
2019-03-28T01:59:46.659Z,38.73
2019-03-28T02:02:13.483Z,37.73
2019-03-28T02:04:40.236Z,38.80
2019-03-28T02:07:07.325Z,37.73
2019-03-28T02:09:34.146Z,36.88
2019-03-28T02:12:00.949Z,40.60
2019-03-28T02:14:27.725Z,34.40
2019-03-28T02:16:54.729Z,36.55
2019-03-28T02:19:21.473Z,36.35
2019-03-28T02:21:48.541Z,35.43
2019-03-28T02:24:16.371Z,36.80
2019-03-28T02:26:43.086Z,37.17
2019-03-28T02:29:09.873Z,36.93
2019-03-28T02:31:36.717Z,36.58
2019-03-28T02:34:03.536Z,37.38
2019-03-28T02:36:30.283Z,37.48
2019-03-28T02:38:57.113Z,36.28
2019-03-28T02:41:24.053Z,36.77
2019-03-28T02:43:50.784Z,34.85
2019-03-28T02:46:17.499Z,36.00
2019-03-28T02:48:44.325Z,35.88
2019-03-28T02:51:11.267Z,35.83
2019-03-28T02:53:39.556Z,36.70
2019-03-28T02:56:06.483Z,36.80
2019-03-28T02:58:33.368Z,33.18
2019-03-28T03:01:00.176Z,34.95
2019-03-28T03:03:26.983Z,33.78
2019-03-28T03:05:53.789Z,34.40
2019-03-28T03:08:20.526Z,34.35
2019-03-28T03:10:47.361Z,33.45
2019-03-28T03:13:14.160Z,35.20
2019-03-28T03:15:40.886Z,33.33
2019-03-28T03:18:08.487Z,32.93
2019-03-28T03:20:35.560Z,33.48
2019-03-28T03:23:02.400Z,33.53
2019-03-28T03:25:29.364Z,33.75
2019-03-28T03:27:58.391Z,31.17
2019-03-28T03:30:25.742Z,33.08
2019-03-28T03:32:52.583Z,33.02
2019-03-28T03:35:19.567Z,33.13
2019-03-28T03:37:46.293Z,34.67
2019-03-28T03:40:13.042Z,33.08
2019-03-28T03:42:39.899Z,33.35
2019-03-28T03:45:07.160Z,33.10
2019-03-28T03:47:33.848Z,32.48
2019-03-28T03:50:00.620Z,32.50
2019-03-28T03:52:27.440Z,32.00
2019-03-28T03:54:54.911Z,30.90
2019-03-28T03:57:21.682Z,30.80
2019-03-28T03:59:48.402Z,31.33
2019-03-28T04:02:15.453Z,30.92
2019-03-28T04:04:42.396Z,32.48
2019-03-28T04:07:09.302Z,32.13
2019-03-28T04:09:36.214Z,31.77
2019-03-28T04:12:03.154Z,33.42
2019-03-28T04:14:30.002Z,31.77
2019-03-28T04:16:57.412Z,31.87
2019-03-28T04:19:24.276Z,31.17
2019-03-28T04:21:51.024Z,34.85
2019-03-28T04:24:17.963Z,34.40
2019-03-28T04:26:44.922Z,33.83
2019-03-28T04:29:12.232Z,34.50
2019-03-28T04:31:39.276Z,34.08
2019-03-28T04:34:07.795Z,35.38
2019-03-28T04:36:34.892Z,34.73
2019-03-28T04:39:01.729Z,34.10
2019-03-28T04:41:28.545Z,36.28
2019-03-28T04:43:56.057Z,35.33
2019-03-28T04:46:23.075Z,34.92
2019-03-28T04:48:50.814Z,37.70
2019-03-28T04:51:17.840Z,33.20
2019-03-28T04:53:44.612Z,37.60
2019-03-28T04:56:12.661Z,35.98
2019-03-28T04:58:44.736Z,36.68
2019-03-28T05:03:36.753Z,35.90
2019-03-28T05:06:03.588Z,35.13
2019-03-28T05:08:30.478Z,39.80
2019-03-28T05:10:58.738Z,35.95
2019-03-28T05:13:25.863Z,37.25
2019-03-28T05:15:54.643Z,38.23
2019-03-28T05:18:21.843Z,35.88
2019-03-28T05:20:48.871Z,37.08
2019-03-28T05:23:15.683Z,36.60
2019-03-28T05:25:42.485Z,37.25
2019-03-28T05:28:09.662Z,37.80
2019-03-28T05:30:36.957Z,36.90
2019-03-28T05:33:05.817Z,36.75
2019-03-28T05:35:34.560Z,37.48
2019-03-28T05:38:02.808Z,38.70
2019-03-28T05:40:29.623Z,38.85
2019-03-28T05:42:56.410Z,37.67
2019-03-28T05:45:25.025Z,37.88
2019-03-28T05:47:51.961Z,38.23
2019-03-28T05:50:18.977Z,40.83
2019-03-28T05:52:45.815Z,37.40
2019-03-28T05:55:12.678Z,38.58
2019-03-28T05:57:39.531Z,40.67
2019-03-28T06:00:06.583Z,39.38
2019-03-28T06:02:33.386Z,39.40
2019-03-28T06:05:00.614Z,39.75
2019-03-28T06:07:27.764Z,41.05
2019-03-28T06:09:54.587Z,43.40
2019-03-28T06:12:21.401Z,46.37
2019-03-28T06:14:48.198Z,42.55
2019-03-28T06:17:15.330Z,42.67
2019-03-28T06:19:42.069Z,43.02
2019-03-28T06:22:10.466Z,42.90
2019-03-28T06:24:37.630Z,45.55
2019-03-28T06:27:05.605Z,42.93
2019-03-28T06:29:33.507Z,41.13
2019-03-28T06:32:00.552Z,43.52
2019-03-28T06:34:27.976Z,43.73
2019-03-28T06:36:54.922Z,43.95
2019-03-28T06:39:23.530Z,40.28
2019-03-28T06:41:52.519Z,38.00
2019-03-28T06:44:19.620Z,43.58
2019-03-28T06:46:47.087Z,40.05
2019-03-28T06:49:14.472Z,39.88
2019-03-28T06:51:41.207Z,41.30
2019-03-28T06:54:08.294Z,40.88
2019-03-28T06:56:35.948Z,41.60
2019-03-28T06:59:06.940Z,39.05
2019-03-28T07:01:33.794Z,37.08
2019-03-28T07:04:20.075Z,38.17
2019-03-28T07:06:48.867Z,38.38
2019-03-28T07:09:37.085Z,35.80
2019-03-28T07:12:23.292Z,35.38
2019-03-28T07:15:08.341Z,34.50
2019-03-28T07:17:43.465Z,35.35
2019-03-28T07:20:10.472Z,34.05
2019-03-28T07:22:37.604Z,33.42
2019-03-28T07:25:05.524Z,33.55
2019-03-28T07:27:32.725Z,34.65
2019-03-28T07:30:01.534Z,31.35
2019-03-28T07:32:28.454Z,32.88
2019-03-28T07:34:55.423Z,31.42
2019-03-28T07:37:24.083Z,33.98
2019-03-28T07:39:51.515Z,34.00
2019-03-28T07:42:20.147Z,33.50
2019-03-28T07:45:04.770Z,34.10
2019-03-28T07:48:03.339Z,32.05
2019-03-28T07:50:33.284Z,31.87
2019-03-28T07:52:59.283Z,31.07
2019-03-28T07:55:26.585Z,30.75
2019-03-28T07:57:53.534Z,30.17
2019-03-28T08:00:20.896Z,28.95
2019-03-28T08:02:48.072Z,29.35
2019-03-28T08:05:16.761Z,28.95
2019-03-28T08:07:45.590Z,29.90
2019-03-28T08:10:15.044Z,28.42
2019-03-28T08:12:43.737Z,30.00
2019-03-28T08:15:18.476Z,28.15
2019-03-28T08:18:03.288Z,29.92
2019-03-28T08:20:48.434Z,30.08
2019-03-28T08:23:46.930Z,30.02
2019-03-28T08:26:31.769Z,28.45
2019-03-28T08:29:16.790Z,28.42
2019-03-28T08:31:45.901Z,28.52
2019-03-28T08:34:12.766Z,27.05
2019-03-28T08:36:39.678Z,27.02
2019-03-28T08:39:06.652Z,27.70
2019-03-28T08:41:33.412Z,28.25
2019-03-28T08:44:00.152Z,29.60
2019-03-28T08:46:27.124Z,29.52
2019-03-28T08:48:54.000Z,28.25
2019-03-28T08:51:20.882Z,30.43
2019-03-28T08:53:48.099Z,27.87
2019-03-28T08:56:14.999Z,30.82
2019-03-28T08:58:41.770Z,31.37
2019-03-28T09:01:08.603Z,31.55
2019-03-28T09:03:35.464Z,32.10
2019-03-28T09:06:02.191Z,30.60
2019-03-28T09:08:28.955Z,30.70
2019-03-28T09:10:56.363Z,29.92
2019-03-28T09:13:23.273Z,28.92
2019-03-28T09:15:50.045Z,27.98
2019-03-28T09:18:16.937Z,29.57
2019-03-28T09:20:43.651Z,28.17
2019-03-28T09:23:10.424Z,30.00
2019-03-28T09:25:37.281Z,28.10
2019-03-28T09:28:04.018Z,30.92
2019-03-28T09:30:47.381Z,32.50
2019-03-28T09:33:03.864Z,30.10
2019-03-28T09:35:30.634Z,31.30
2019-03-28T09:37:57.414Z,32.30
2019-03-28T09:40:24.193Z,33.05
2019-03-28T09:42:50.924Z,36.73
2019-03-28T09:45:17.752Z,34.20
2019-03-28T09:47:44.479Z,35.23
2019-03-28T09:50:11.463Z,36.63
2019-03-28T09:52:38.244Z,33.58
2019-03-28T09:55:05.072Z,35.75
2019-03-28T09:57:31.941Z,35.08
2019-03-28T09:59:58.701Z,34.40
2019-03-28T10:02:25.419Z,34.78
2019-03-28T10:04:52.263Z,35.63
2019-03-28T10:07:18.933Z,36.45
2019-03-28T10:09:46.272Z,35.68
2019-03-28T10:12:13.120Z,39.42
2019-03-28T10:14:39.913Z,35.13
2019-03-28T10:17:06.679Z,33.15
2019-03-28T10:19:33.562Z,33.00
2019-03-28T10:22:00.365Z,34.67
2019-03-28T10:24:27.197Z,32.93
2019-03-28T10:26:55.187Z,32.53
2019-03-28T10:29:21.937Z,32.65
2019-03-28T10:31:48.719Z,32.95
2019-03-28T10:34:15.467Z,34.00
2019-03-28T10:36:42.335Z,33.50
2019-03-28T10:39:09.215Z,33.18
2019-03-28T10:41:38.286Z,31.37
2019-03-28T10:44:04.642Z,32.30
2019-03-28T10:46:31.449Z,32.17
2019-03-28T10:48:58.307Z,33.50
2019-03-28T10:51:25.048Z,30.88
2019-03-28T10:53:51.844Z,32.98
2019-03-28T10:56:23.363Z,34.03
2019-03-28T10:58:47.703Z,31.55
2019-03-28T11:01:16.644Z,30.35
2019-03-28T11:03:43.291Z,31.57
2019-03-28T11:06:10.225Z,33.10
2019-03-28T11:08:37.102Z,32.25
2019-03-28T11:11:03.943Z,37.00
2019-03-28T11:13:30.867Z,33.55
2019-03-28T11:15:57.753Z,31.65
2019-03-28T11:18:24.634Z,33.00
2019-03-28T11:20:53.354Z,31.97
2019-03-28T11:23:20.128Z,31.85
2019-03-28T11:25:46.931Z,31.42
2019-03-28T11:28:13.766Z,30.72
2019-03-28T11:30:40.501Z,29.77
2019-03-28T11:33:07.265Z,31.80
2019-03-28T11:35:34.007Z,30.62
2019-03-28T11:38:00.795Z,29.75
2019-03-28T11:40:27.657Z,31.37
2019-03-28T11:42:54.396Z,30.55
2019-03-28T11:45:21.251Z,28.95
2019-03-28T11:47:48.115Z,29.20
2019-03-28T11:50:17.168Z,28.42
2019-03-28T11:52:43.550Z,28.27
2019-03-28T11:55:10.770Z,28.05
2019-03-28T11:57:39.664Z,27.22
2019-03-28T12:00:11.718Z,28.02
2019-03-28T12:02:38.534Z,27.73
2019-03-28T12:05:05.784Z,28.80
2019-03-28T12:07:32.768Z,27.75
2019-03-28T12:09:59.553Z,28.92
2019-03-28T12:12:26.937Z,31.27
2019-03-28T12:14:53.710Z,30.65
2019-03-28T12:17:20.483Z,32.90
2019-03-28T12:19:47.402Z,30.85
2019-03-28T12:22:14.366Z,31.33
2019-03-28T12:24:41.110Z,21.40
2019-03-28T12:27:08.118Z,13.72
2019-03-28T12:29:35.892Z,9.35
2019-03-28T12:32:13.338Z,9.43
2019-03-28T12:34:31.934Z,8.08
2019-03-28T12:36:58.680Z,8.65
2019-03-28T12:39:25.694Z,11.03
2019-03-28T12:41:52.407Z,15.88
2019-03-28T12:44:19.237Z,10.40
2019-03-28T12:46:46.189Z,10.53
2019-03-28T12:49:12.994Z,10.80
2019-03-28T12:51:39.726Z,12.20
2019-03-28T12:54:06.506Z,13.93
2019-03-28T12:56:33.362Z,15.48
2019-03-28T12:59:00.184Z,14.73
2019-03-28T13:01:26.968Z,15.90
2019-03-28T13:03:53.683Z,16.93
2019-03-28T13:06:22.820Z,16.50
2019-03-28T13:08:53.362Z,15.88
2019-03-28T13:11:20.264Z,16.02
2019-03-28T13:13:47.205Z,16.75
2019-03-28T13:16:13.995Z,16.45
2019-03-28T13:18:45.326Z,16.50
2019-03-28T13:21:14.191Z,16.80
2019-03-28T13:23:41.224Z,15.80
2019-03-28T13:26:09.371Z,13.48
2019-03-28T13:28:36.243Z,14.25
2019-03-28T13:31:03.194Z,14.63
2019-03-28T13:33:30.687Z,15.72
2019-03-28T13:35:57.646Z,16.48
2019-03-28T13:38:24.474Z,15.90
2019-03-28T13:40:51.697Z,14.98
2019-03-28T13:43:20.975Z,16.52
2019-03-28T13:45:53.656Z,16.57
2019-03-28T13:48:20.892Z,15.43
2019-03-28T13:50:47.969Z,17.52
2019-03-28T13:53:14.809Z,16.95
2019-03-28T13:55:41.562Z,16.45
2019-03-28T13:58:08.316Z,16.02
2019-03-28T14:00:35.356Z,16.00
2019-03-28T14:03:02.152Z,15.68
2019-03-28T14:05:28.964Z,17.15
2019-03-28T14:07:55.888Z,16.75
2019-03-28T14:10:22.682Z,17.07
2019-03-28T14:12:49.388Z,16.52
2019-03-28T14:15:16.166Z,18.07
2019-03-28T14:17:43.068Z,17.67
2019-03-28T14:20:09.791Z,18.57
2019-03-28T14:22:36.706Z,16.73
2019-03-28T14:25:06.478Z,17.02
2019-03-28T14:27:33.211Z,14.78
2019-03-28T14:30:00.158Z,14.35
2019-03-28T14:32:28.078Z,13.80
2019-03-28T14:34:55.563Z,15.13
2019-03-28T14:37:22.453Z,14.18
2019-03-28T14:39:49.465Z,14.60
2019-03-28T14:42:19.502Z,14.03
2019-03-28T14:44:45.452Z,14.20
2019-03-28T14:47:12.205Z,14.45
2019-03-28T14:49:39.175Z,14.65
2019-03-28T14:52:05.950Z,13.95
2019-03-28T14:54:32.681Z,15.40
2019-03-28T14:56:59.594Z,14.83
2019-03-28T14:59:32.462Z,16.07
2019-03-28T15:01:55.150Z,16.17
2019-03-28T15:04:21.916Z,15.85
2019-03-28T15:06:48.658Z,16.95
2019-03-28T15:09:15.407Z,16.17
2019-03-28T15:11:42.192Z,17.37
2019-03-28T15:14:08.919Z,17.42
2019-03-28T15:16:35.654Z,17.77
2019-03-28T15:19:02.407Z,16.93
2019-03-28T15:21:29.129Z,16.62
2019-03-28T15:23:55.961Z,17.40
2019-03-28T15:26:22.758Z,16.87
2019-03-28T15:28:49.486Z,17.07
2019-03-28T15:31:16.312Z,16.12
2019-03-28T15:33:43.144Z,16.80
2019-03-28T15:36:09.974Z,16.60
2019-03-28T15:38:36.734Z,16.05
2019-03-28T15:41:03.510Z,19.17
2019-03-28T15:43:30.325Z,15.50
2019-03-28T15:45:57.076Z,15.45
2019-03-28T15:48:23.916Z,16.10
2019-03-28T15:50:50.752Z,16.05
2019-03-28T15:53:17.492Z,17.15
2019-03-28T15:55:44.272Z,17.20
2019-03-28T15:58:22.663Z,15.78
2019-03-28T16:00:39.767Z,15.68
2019-03-28T16:03:06.577Z,15.98
2019-03-28T16:05:33.457Z,16.17
2019-03-28T16:08:01.050Z,16.23
2019-03-28T16:10:28.093Z,15.58
2019-03-28T16:12:54.934Z,16.27
2019-03-28T16:15:22.432Z,15.68
2019-03-28T16:17:49.729Z,16.65
2019-03-28T16:20:16.480Z,17.32
2019-03-28T16:22:43.256Z,16.97
2019-03-28T16:25:10.162Z,17.42
2019-03-28T16:27:37.096Z,17.37
2019-03-28T16:30:07.071Z,16.82
2019-03-28T16:35:00.607Z,17.17
2019-03-28T16:37:27.810Z,17.37
2019-03-28T16:39:54.756Z,18.10
2019-03-28T16:42:21.486Z,16.50
2019-03-28T16:44:49.278Z,16.20
2019-03-28T16:47:16.108Z,17.23
2019-03-28T16:49:42.997Z,16.65
2019-03-28T16:52:09.727Z,17.98
2019-03-28T16:54:36.475Z,19.40
2019-03-28T16:57:03.453Z,20.00
2019-03-28T16:59:30.359Z,18.73
2019-03-28T17:01:57.136Z,18.35
2019-03-28T17:04:23.946Z,18.90
2019-03-28T17:06:56.906Z,20.37
2019-03-28T17:10:40.907Z,19.40
2019-03-28T17:13:16.417Z,19.12
2019-03-28T17:15:43.309Z,19.55
2019-03-28T17:18:10.028Z,20.75
2019-03-28T17:20:36.884Z,20.30
2019-03-28T17:23:03.686Z,20.45
2019-03-28T17:25:32.701Z,20.20
2019-03-28T17:27:59.467Z,20.48
2019-03-28T17:30:26.983Z,21.12
2019-03-28T17:32:54.033Z,22.02
2019-03-28T17:35:20.993Z,20.80
2019-03-28T17:37:47.693Z,21.33
2019-03-28T17:40:14.429Z,21.82
2019-03-28T17:42:41.173Z,22.02
2019-03-28T17:45:08.083Z,22.30
2019-03-28T17:47:34.970Z,22.35
2019-03-28T17:50:01.837Z,21.95
2019-03-28T17:52:28.607Z,22.87
2019-03-28T17:54:55.465Z,22.40
2019-03-28T17:57:22.195Z,23.70
2019-03-28T17:59:49.038Z,22.93
2019-03-28T18:02:15.879Z,25.00
2019-03-28T18:04:48.229Z,23.32
2019-03-28T18:07:11.363Z,24.40
2019-03-28T18:09:38.285Z,25.02
2019-03-28T18:12:04.995Z,25.17
2019-03-28T18:14:31.871Z,27.45
2019-03-28T18:16:59.548Z,28.50
2019-03-28T18:19:26.387Z,27.67
2019-03-28T18:22:03.264Z,29.63
2019-03-28T18:24:21.920Z,30.40
2019-03-28T18:26:48.862Z,31.70
2019-03-28T18:29:19.005Z,33.80
2019-03-28T18:31:50.295Z,31.87
2019-03-28T18:34:13.046Z,35.05
2019-03-28T18:36:39.834Z,33.70
2019-03-28T18:39:06.636Z,35.55
2019-03-28T18:41:33.364Z,36.38
2019-03-28T18:44:00.123Z,37.90
2019-03-28T18:46:26.895Z,35.73
2019-03-28T18:48:53.632Z,36.65
2019-03-28T18:51:20.400Z,37.38
2019-03-28T18:53:47.146Z,38.70
2019-03-28T18:56:13.889Z,37.50
2019-03-28T18:58:40.677Z,37.48
2019-03-28T19:01:07.881Z,37.90
2019-03-28T19:03:35.719Z,38.58
2019-03-28T19:06:02.624Z,41.68
2019-03-28T19:08:29.350Z,42.03
2019-03-28T19:10:56.150Z,42.43
2019-03-28T19:13:23.026Z,44.25
2019-03-28T19:15:50.150Z,41.68
2019-03-28T19:18:16.966Z,41.28
2019-03-28T19:20:43.717Z,41.90
2019-03-28T19:23:10.440Z,39.60
2019-03-28T19:25:37.218Z,39.88
2019-03-28T19:28:07.265Z,42.93
2019-03-28T19:30:33.390Z,42.83
2019-03-28T19:33:00.373Z,43.85
2019-03-28T19:35:32.925Z,44.15
2019-03-28T19:37:56.000Z,43.83
2019-03-28T19:40:22.771Z,46.50
2019-03-28T19:42:49.752Z,50.98
2019-03-28T19:45:20.670Z,48.90
2019-03-28T19:47:47.438Z,49.03
2019-03-28T19:50:25.353Z,51.28
2019-03-28T19:52:52.193Z,49.80
2019-03-28T19:55:22.128Z,50.50
2019-03-28T19:57:48.882Z,52.67
2019-03-28T20:00:15.659Z,55.45
2019-03-28T20:02:42.534Z,54.13
2019-03-28T20:05:09.364Z,56.70
2019-03-28T20:07:36.040Z,56.98
2019-03-28T20:10:15.788Z,57.03
2019-03-28T20:12:32.549Z,59.58
2019-03-28T20:15:00.347Z,58.68
2019-03-28T20:17:27.441Z,59.63
2019-03-28T20:19:54.826Z,59.58
2019-03-28T20:22:21.845Z,59.33
2019-03-28T20:24:48.796Z,61.33
2019-03-28T20:27:15.579Z,61.80
2019-03-28T20:29:42.371Z,64.17
2019-03-28T20:32:09.197Z,64.25
2019-03-28T20:34:36.168Z,61.88
2019-03-28T20:37:03.115Z,62.30
2019-03-28T20:39:29.961Z,56.77
2019-03-28T20:41:56.728Z,58.83
2019-03-28T20:44:23.505Z,57.43
2019-03-28T20:46:50.273Z,56.45
2019-03-28T20:49:17.009Z,57.50
2019-03-28T20:51:43.798Z,55.83
2019-03-28T20:54:10.688Z,56.92
2019-03-28T20:56:37.522Z,59.58
2019-03-28T20:59:04.273Z,61.23
2019-03-28T21:01:31.173Z,61.88
2019-03-28T21:03:58.182Z,70.55
2019-03-28T21:06:24.949Z,65.08
2019-03-28T21:08:51.734Z,62.23
2019-03-28T21:11:18.501Z,66.82
2019-03-28T21:13:45.776Z,65.67
2019-03-28T21:16:12.600Z,63.02
2019-03-28T21:18:39.389Z,69.95
2019-03-28T21:21:06.165Z,67.03
2019-03-28T21:23:32.880Z,71.92
2019-03-28T21:25:59.671Z,72.80
2019-03-28T21:28:26.406Z,72.25
2019-03-28T21:30:53.178Z,72.25
2019-03-28T21:33:19.937Z,70.87
2019-03-28T21:35:47.189Z,75.60
2019-03-28T21:38:13.949Z,76.42
2019-03-28T21:40:40.799Z,74.35
2019-03-28T21:43:07.547Z,71.30
2019-03-28T21:45:34.401Z,71.25
2019-03-28T21:48:01.165Z,74.10
2019-03-28T21:50:27.883Z,69.40
2019-03-28T21:52:54.724Z,70.87
2019-03-28T21:55:21.477Z,63.68
2019-03-28T21:57:48.208Z,60.65
2019-03-28T22:00:15.510Z,58.25
2019-03-28T22:02:42.293Z,61.65
2019-03-28T22:05:09.051Z,62.15
2019-03-28T22:07:35.771Z,66.87
2019-03-28T22:10:08.345Z,66.67
2019-03-28T22:12:33.419Z,78.35
2019-03-28T22:15:00.356Z,84.55
2019-03-28T22:17:27.564Z,88.20
2019-03-28T22:19:54.277Z,89.13
2019-03-28T22:22:21.215Z,90.00
2019-03-28T22:24:47.948Z,85.90
2019-03-28T22:27:14.801Z,84.72
2019-03-28T22:29:41.676Z,89.03
2019-03-28T22:32:11.567Z,86.25
2019-03-28T22:34:37.199Z,88.58
2019-03-28T22:37:04.427Z,88.33
2019-03-28T22:39:31.161Z,87.53
2019-03-28T22:41:58.013Z,90.62
2019-03-28T22:44:25.034Z,85.85
2019-03-28T22:46:51.986Z,85.72
2019-03-28T22:49:18.751Z,91.02
2019-03-28T22:51:45.545Z,89.40
2019-03-28T22:54:12.303Z,83.75
2019-03-28T22:56:39.063Z,90.57
2019-03-28T22:59:05.816Z,86.65
2019-03-28T23:01:32.653Z,87.97
2019-03-28T23:03:59.505Z,82.45
2019-03-28T23:06:26.294Z,83.30
2019-03-28T23:08:53.002Z,84.28
2019-03-28T23:11:19.935Z,88.62
2019-03-28T23:13:46.696Z,91.75
2019-03-28T23:16:13.503Z,94.52
2019-03-28T23:18:40.217Z,84.05
2019-03-28T23:21:06.929Z,98.25
2019-03-28T23:23:33.740Z,89.47
2019-03-28T23:26:00.463Z,88.10
2019-03-28T23:28:27.214Z,99.72
2019-03-28T23:30:54.221Z,85.20
2019-03-28T23:33:21.674Z,92.37
2019-03-28T23:35:48.722Z,88.03
2019-03-28T23:38:15.545Z,99.15
2019-03-28T23:40:42.250Z,100.72
2019-03-28T23:43:09.293Z,93.58
2019-03-28T23:45:36.698Z,95.80
2019-03-28T23:48:03.457Z,87.08
2019-03-28T23:50:30.302Z,84.22
2019-03-28T23:52:57.182Z,84.20
2019-03-28T23:55:25.355Z,82.22
2019-03-28T23:57:52.142Z,82.12
